Terminal Aerodrome Forecast
Issued by NWS North Platte, NE

Home | Current Version | Previous Version | Text Only | Print | Product List | Glossary Off
Versions: 1 2 3 4 5 6 7 8 9 10 11 12 13 14 15 16 17 18 19 20 21 22 23 24 25

000
FTUS43 KLBF 272336
TAFVTN
TAF
KVTN 272336Z 2800/2824 33013KT 6SM -RASN OVC012
     FM280300 34012KT P6SM VCSH OVC007
     FM281700 34009KT P6SM OVC015
     FM282000 02009KT P6SM BKN020=

USA.gov is the U.S. government's official web portal to all federal, state and local government web resources and services.